sensor_id;sensor_type;location;lat;lon;timestamp;P1;durP1;ratioP1;P2;durP2;ratioP2
24521;SDS011;12680;57.804;12.190;2023-03-30T00:00:57;3.05;;;2.10;;
24521;SDS011;12680;57.804;12.190;2023-03-30T00:03:26;2.40;;;1.65;;
24521;SDS011;12680;57.804;12.190;2023-03-30T00:05:54;2.83;;;1.58;;
24521;SDS011;12680;57.804;12.190;2023-03-30T00:08:24;1.88;;;1.60;;
24521;SDS011;12680;57.804;12.190;2023-03-30T00:11:05;2.35;;;1.80;;
24521;SDS011;12680;57.804;12.190;2023-03-30T00:13:34;1.83;;;1.33;;
24521;SDS011;12680;57.804;12.190;2023-03-30T00:16:03;1.58;;;1.48;;
24521;SDS011;12680;57.804;12.190;2023-03-30T00:18:32;2.25;;;1.50;;
24521;SDS011;12680;57.804;12.190;2023-03-30T00:20:59;1.45;;;1.35;;
24521;SDS011;12680;57.804;12.190;2023-03-30T00:23:30;1.40;;;1.30;;
24521;SDS011;12680;57.804;12.190;2023-03-30T00:25:58;1.70;;;1.30;;
24521;SDS011;12680;57.804;12.190;2023-03-30T00:28:25;1.83;;;1.45;;
24521;SDS011;12680;57.804;12.190;2023-03-30T00:30:52;1.10;;;1.00;;
24521;SDS011;12680;57.804;12.190;2023-03-30T00:33:19;2.58;;;1.30;;
24521;SDS011;12680;57.804;12.190;2023-03-30T00:36:02;1.88;;;1.50;;
24521;SDS011;12680;57.804;12.190;2023-03-30T00:38:29;0.95;;;0.85;;
24521;SDS011;12680;57.804;12.190;2023-03-30T00:40:57;1.35;;;1.23;;
24521;SDS011;12680;57.804;12.190;2023-03-30T00:43:26;1.65;;;1.15;;
24521;SDS011;12680;57.804;12.190;2023-03-30T00:45:54;1.30;;;1.20;;
24521;SDS011;12680;57.804;12.190;2023-03-30T00:51:05;1.13;;;1.02;;
24521;SDS011;12680;57.804;12.190;2023-03-30T00:53:40;1.20;;;1.10;;
24521;SDS011;12680;57.804;12.190;2023-03-30T00:56:14;0.88;;;0.85;;
24521;SDS011;12680;57.804;12.190;2023-03-30T00:58:44;1.10;;;1.00;;
24521;SDS011;12680;57.804;12.190;2023-03-30T01:01:12;1.20;;;1.10;;
24521;SDS011;12680;57.804;12.190;2023-03-30T01:03:44;0.88;;;0.80;;
24521;SDS011;12680;57.804;12.190;2023-03-30T01:06:14;0.90;;;0.90;;
24521;SDS011;12680;57.804;12.190;2023-03-30T01:08:47;1.25;;;0.90;;
24521;SDS011;12680;57.804;12.190;2023-03-30T01:11:15;1.10;;;1.00;;
24521;SDS011;12680;57.804;12.190;2023-03-30T01:13:43;0.80;;;0.80;;
24521;SDS011;12680;57.804;12.190;2023-03-30T01:33:07;0.70;;;0.70;;
24521;SDS011;12680;57.804;12.190;2023-03-30T01:36:00;0.85;;;0.85;;
24521;SDS011;12680;57.804;12.190;2023-03-30T01:44:33;0.63;;;0.60;;
24521;SDS011;12680;57.804;12.190;2023-03-30T01:49:58;0.40;;;0.40;;
24521;SDS011;12680;57.804;12.190;2023-03-30T01:52:38;0.70;;;0.70;;
24521;SDS011;12680;57.804;12.190;2023-03-30T01:55:14;1.45;;;0.90;;
24521;SDS011;12680;57.804;12.190;2023-03-30T02:00:20;1.23;;;1.13;;
24521;SDS011;12680;57.804;12.190;2023-03-30T02:03:11;1.52;;;0.80;;
24521;SDS011;12680;57.804;12.190;2023-03-30T02:05:39;0.90;;;0.90;;
24521;SDS011;12680;57.804;12.190;2023-03-30T02:08:07;2.78;;;1.10;;
24521;SDS011;12680;57.804;12.190;2023-03-30T02:10:39;1.20;;;1.00;;
24521;SDS011;12680;57.804;12.190;2023-03-30T02:13:07;1.77;;;1.02;;
24521;SDS011;12680;57.804;12.190;2023-03-30T02:15:37;1.02;;;0.90;;
24521;SDS011;12680;57.804;12.190;2023-03-30T02:18:09;1.85;;;0.82;;
24521;SDS011;12680;57.804;12.190;2023-03-30T02:20:36;0.90;;;0.90;;
24521;SDS011;12680;57.804;12.190;2023-03-30T02:23:04;1.27;;;0.85;;
24521;SDS011;12680;57.804;12.190;2023-03-30T02:25:32;0.82;;;0.82;;
24521;SDS011;12680;57.804;12.190;2023-03-30T02:28:01;1.27;;;1.10;;
24521;SDS011;12680;57.804;12.190;2023-03-30T02:30:31;0.90;;;0.80;;
24521;SDS011;12680;57.804;12.190;2023-03-30T02:32:59;1.95;;;1.00;;
24521;SDS011;12680;57.804;12.190;2023-03-30T02:38:19;0.80;;;0.60;;
24521;SDS011;12680;57.804;12.190;2023-03-30T02:41:26;1.20;;;0.95;;
24521;SDS011;12680;57.804;12.190;2023-03-30T02:49:33;0.95;;;0.90;;
24521;SDS011;12680;57.804;12.190;2023-03-30T02:52:11;1.35;;;1.02;;
24521;SDS011;12680;57.804;12.190;2023-03-30T02:55:43;0.80;;;0.80;;
24521;SDS011;12680;57.804;12.190;2023-03-30T02:58:15;2.00;;;1.13;;
24521;SDS011;12680;57.804;12.190;2023-03-30T03:00:49;1.17;;;1.08;;
24521;SDS011;12680;57.804;12.190;2023-03-30T03:03:25;0.85;;;0.82;;
24521;SDS011;12680;57.804;12.190;2023-03-30T03:05:58;1.02;;;0.90;;
24521;SDS011;12680;57.804;12.190;2023-03-30T03:08:29;1.15;;;1.05;;
24521;SDS011;12680;57.804;12.190;2023-03-30T03:10:59;1.05;;;0.95;;
24521;SDS011;12680;57.804;12.190;2023-03-30T03:13:26;0.98;;;0.80;;
24521;SDS011;12680;57.804;12.190;2023-03-30T03:15:53;1.15;;;0.90;;
24521;SDS011;12680;57.804;12.190;2023-03-30T03:18:23;2.08;;;1.00;;
24521;SDS011;12680;57.804;12.190;2023-03-30T03:20:50;1.23;;;1.10;;
24521;SDS011;12680;57.804;12.190;2023-03-30T03:23:16;1.83;;;0.93;;
24521;SDS011;12680;57.804;12.190;2023-03-30T03:25:43;1.23;;;1.13;;
24521;SDS011;12680;57.804;12.190;2023-03-30T03:28:10;1.20;;;1.08;;
24521;SDS011;12680;57.804;12.190;2023-03-30T03:30:37;1.92;;;1.00;;
24521;SDS011;12680;57.804;12.190;2023-03-30T03:33:04;1.25;;;1.00;;
24521;SDS011;12680;57.804;12.190;2023-03-30T03:35:31;1.77;;;1.10;;
24521;SDS011;12680;57.804;12.190;2023-03-30T03:37:58;1.05;;;1.02;;
24521;SDS011;12680;57.804;12.190;2023-03-30T03:40:26;1.80;;;1.00;;
24521;SDS011;12680;57.804;12.190;2023-03-30T03:42:52;1.33;;;1.15;;
24521;SDS011;12680;57.804;12.190;2023-03-30T03:45:19;1.95;;;1.10;;
24521;SDS011;12680;57.804;12.190;2023-03-30T03:47:48;2.30;;;1.35;;
24521;SDS011;12680;57.804;12.190;2023-03-30T03:50:16;2.22;;;1.33;;
24521;SDS011;12680;57.804;12.190;2023-03-30T03:52:44;1.27;;;1.17;;
24521;SDS011;12680;57.804;12.190;2023-03-30T03:55:11;1.58;;;1.20;;
24521;SDS011;12680;57.804;12.190;2023-03-30T03:57:38;1.60;;;0.90;;
24521;SDS011;12680;57.804;12.190;2023-03-30T04:00:05;2.00;;;1.30;;
24521;SDS011;12680;57.804;12.190;2023-03-30T04:02:42;1.92;;;1.35;;
24521;SDS011;12680;57.804;12.190;2023-03-30T04:05:10;1.38;;;1.05;;
24521;SDS011;12680;57.804;12.190;2023-03-30T04:07:37;2.20;;;1.00;;
24521;SDS011;12680;57.804;12.190;2023-03-30T04:10:04;2.35;;;1.52;;
24521;SDS011;12680;57.804;12.190;2023-03-30T04:12:32;1.75;;;1.10;;
24521;SDS011;12680;57.804;12.190;2023-03-30T04:14:59;1.65;;;1.35;;
24521;SDS011;12680;57.804;12.190;2023-03-30T04:17:26;1.90;;;1.40;;
24521;SDS011;12680;57.804;12.190;2023-03-30T04:19:53;1.67;;;1.23;;
24521;SDS011;12680;57.804;12.190;2023-03-30T04:22:20;0.88;;;0.88;;
24521;SDS011;12680;57.804;12.190;2023-03-30T04:24:51;2.03;;;1.45;;
24521;SDS011;12680;57.804;12.190;2023-03-30T04:27:18;1.75;;;1.20;;
24521;SDS011;12680;57.804;12.190;2023-03-30T04:29:44;1.20;;;1.10;;
24521;SDS011;12680;57.804;12.190;2023-03-30T04:32:11;1.35;;;1.10;;
24521;SDS011;12680;57.804;12.190;2023-03-30T04:34:38;2.75;;;1.35;;
24521;SDS011;12680;57.804;12.190;2023-03-30T04:37:08;1.23;;;1.10;;
24521;SDS011;12680;57.804;12.190;2023-03-30T04:39:35;1.42;;;1.20;;
24521;SDS011;12680;57.804;12.190;2023-03-30T04:42:02;1.88;;;1.10;;
24521;SDS011;12680;57.804;12.190;2023-03-30T04:44:31;1.27;;;1.17;;
24521;SDS011;12680;57.804;12.190;2023-03-30T04:46:58;1.30;;;1.20;;
24521;SDS011;12680;57.804;12.190;2023-03-30T04:49:24;1.60;;;1.20;;
24521;SDS011;12680;57.804;12.190;2023-03-30T04:51:51;1.70;;;1.08;;
24521;SDS011;12680;57.804;12.190;2023-03-30T04:54:19;1.55;;;1.10;;
24521;SDS011;12680;57.804;12.190;2023-03-30T04:56:46;1.27;;;1.05;;
24521;SDS011;12680;57.804;12.190;2023-03-30T04:59:13;3.40;;;1.08;;
24521;SDS011;12680;57.804;12.190;2023-03-30T05:01:40;1.48;;;0.88;;
24521;SDS011;12680;57.804;12.190;2023-03-30T05:04:07;1.70;;;1.00;;
24521;SDS011;12680;57.804;12.190;2023-03-30T05:06:33;1.00;;;0.90;;
24521;SDS011;12680;57.804;12.190;2023-03-30T05:09:00;1.35;;;0.90;;
24521;SDS011;12680;57.804;12.190;2023-03-30T05:11:27;1.63;;;0.90;;
24521;SDS011;12680;57.804;12.190;2023-03-30T05:13:54;1.00;;;0.98;;
24521;SDS011;12680;57.804;12.190;2023-03-30T05:16:21;1.30;;;1.10;;
24521;SDS011;12680;57.804;12.190;2023-03-30T05:18:47;1.15;;;0.90;;
24521;SDS011;12680;57.804;12.190;2023-03-30T05:21:16;1.10;;;1.00;;
24521;SDS011;12680;57.804;12.190;2023-03-30T05:23:43;1.02;;;0.85;;
24521;SDS011;12680;57.804;12.190;2023-03-30T05:26:10;1.55;;;1.00;;
24521;SDS011;12680;57.804;12.190;2023-03-30T05:28:37;1.00;;;0.90;;
24521;SDS011;12680;57.804;12.190;2023-03-30T05:31:03;0.90;;;0.90;;
24521;SDS011;12680;57.804;12.190;2023-03-30T05:33:30;1.15;;;1.05;;
24521;SDS011;12680;57.804;12.190;2023-03-30T05:35:57;0.95;;;0.95;;
24521;SDS011;12680;57.804;12.190;2023-03-30T05:38:24;1.65;;;1.00;;
24521;SDS011;12680;57.804;12.190;2023-03-30T05:40:51;1.30;;;1.15;;
24521;SDS011;12680;57.804;12.190;2023-03-30T05:43:19;1.13;;;0.95;;
24521;SDS011;12680;57.804;12.190;2023-03-30T05:45:46;1.20;;;1.10;;
24521;SDS011;12680;57.804;12.190;2023-03-30T05:48:13;1.45;;;1.35;;
24521;SDS011;12680;57.804;12.190;2023-03-30T05:50:40;1.75;;;1.08;;
24521;SDS011;12680;57.804;12.190;2023-03-30T05:53:08;1.75;;;1.00;;
24521;SDS011;12680;57.804;12.190;2023-03-30T05:55:34;1.30;;;1.20;;
24521;SDS011;12680;57.804;12.190;2023-03-30T05:58:01;1.35;;;1.10;;
24521;SDS011;12680;57.804;12.190;2023-03-30T06:00:29;3.20;;;1.17;;
24521;SDS011;12680;57.804;12.190;2023-03-30T06:02:58;1.38;;;1.17;;
24521;SDS011;12680;57.804;12.190;2023-03-30T06:05:25;1.52;;;1.40;;
24521;SDS011;12680;57.804;12.190;2023-03-30T06:07:52;1.27;;;1.10;;
24521;SDS011;12680;57.804;12.190;2023-03-30T06:10:19;1.45;;;1.25;;
24521;SDS011;12680;57.804;12.190;2023-03-30T06:12:47;1.73;;;1.40;;
24521;SDS011;12680;57.804;12.190;2023-03-30T06:15:13;2.03;;;1.20;;
24521;SDS011;12680;57.804;12.190;2023-03-30T06:17:40;2.38;;;1.10;;
24521;SDS011;12680;57.804;12.190;2023-03-30T06:20:08;1.50;;;1.30;;
24521;SDS011;12680;57.804;12.190;2023-03-30T06:22:38;1.58;;;1.30;;
24521;SDS011;12680;57.804;12.190;2023-03-30T06:25:07;1.50;;;1.25;;
24521;SDS011;12680;57.804;12.190;2023-03-30T06:27:34;1.90;;;1.50;;
24521;SDS011;12680;57.804;12.190;2023-03-30T06:30:02;1.75;;;1.25;;
24521;SDS011;12680;57.804;12.190;2023-03-30T06:32:30;2.10;;;1.50;;
24521;SDS011;12680;57.804;12.190;2023-03-30T06:34:57;2.05;;;1.38;;
24521;SDS011;12680;57.804;12.190;2023-03-30T06:37:23;1.17;;;1.00;;
24521;SDS011;12680;57.804;12.190;2023-03-30T06:39:50;1.67;;;1.25;;
24521;SDS011;12680;57.804;12.190;2023-03-30T06:42:17;1.80;;;1.40;;
24521;SDS011;12680;57.804;12.190;2023-03-30T06:44:44;1.02;;;1.00;;
24521;SDS011;12680;57.804;12.190;2023-03-30T06:47:14;1.42;;;1.27;;
24521;SDS011;12680;57.804;12.190;2023-03-30T06:49:41;1.63;;;1.35;;
24521;SDS011;12680;57.804;12.190;2023-03-30T06:52:08;1.17;;;1.08;;
24521;SDS011;12680;57.804;12.190;2023-03-30T06:54:34;1.77;;;1.20;;
24521;SDS011;12680;57.804;12.190;2023-03-30T06:57:01;1.75;;;1.52;;
24521;SDS011;12680;57.804;12.190;2023-03-30T06:59:29;4.90;;;1.30;;
24521;SDS011;12680;57.804;12.190;2023-03-30T07:02:00;1.30;;;1.20;;
24521;SDS011;12680;57.804;12.190;2023-03-30T07:04:27;2.10;;;1.50;;
24521;SDS011;12680;57.804;12.190;2023-03-30T07:06:54;1.75;;;1.25;;
24521;SDS011;12680;57.804;12.190;2023-03-30T07:09:23;2.50;;;1.40;;
24521;SDS011;12680;57.804;12.190;2023-03-30T07:11:50;1.50;;;1.40;;
24521;SDS011;12680;57.804;12.190;2023-03-30T07:14:20;4.88;;;1.40;;
24521;SDS011;12680;57.804;12.190;2023-03-30T07:16:47;3.55;;;1.48;;
24521;SDS011;12680;57.804;12.190;2023-03-30T07:19:14;1.50;;;1.40;;
24521;SDS011;12680;57.804;12.190;2023-03-30T07:21:41;2.45;;;1.50;;
24521;SDS011;12680;57.804;12.190;2023-03-30T07:24:08;2.15;;;1.48;;
24521;SDS011;12680;57.804;12.190;2023-03-30T07:26:35;1.75;;;1.30;;
24521;SDS011;12680;57.804;12.190;2023-03-30T07:29:02;2.15;;;1.67;;
24521;SDS011;12680;57.804;12.190;2023-03-30T07:31:30;1.40;;;1.30;;
24521;SDS011;12680;57.804;12.190;2023-03-30T07:33:57;2.25;;;1.40;;
24521;SDS011;12680;57.804;12.190;2023-03-30T07:36:24;1.70;;;1.40;;
24521;SDS011;12680;57.804;12.190;2023-03-30T07:38:51;1.38;;;1.27;;
24521;SDS011;12680;57.804;12.190;2023-03-30T07:41:17;1.35;;;1.25;;
24521;SDS011;12680;57.804;12.190;2023-03-30T07:43:45;1.42;;;1.33;;
24521;SDS011;12680;57.804;12.190;2023-03-30T07:46:11;1.40;;;1.30;;
24521;SDS011;12680;57.804;12.190;2023-03-30T07:48:38;1.45;;;1.30;;
24521;SDS011;12680;57.804;12.190;2023-03-30T07:51:07;1.45;;;1.20;;
24521;SDS011;12680;57.804;12.190;2023-03-30T07:53:35;2.85;;;1.52;;
24521;SDS011;12680;57.804;12.190;2023-03-30T07:56:03;2.65;;;1.48;;
24521;SDS011;12680;57.804;12.190;2023-03-30T07:58:31;1.50;;;1.38;;
24521;SDS011;12680;57.804;12.190;2023-03-30T08:00:58;1.20;;;1.02;;
24521;SDS011;12680;57.804;12.190;2023-03-30T08:03:28;1.17;;;1.08;;
24521;SDS011;12680;57.804;12.190;2023-03-30T08:05:58;1.13;;;1.02;;
24521;SDS011;12680;57.804;12.190;2023-03-30T08:08:30;1.25;;;1.20;;
24521;SDS011;12680;57.804;12.190;2023-03-30T08:10:58;1.13;;;1.02;;
24521;SDS011;12680;57.804;12.190;2023-03-30T08:13:25;1.30;;;1.00;;
24521;SDS011;12680;57.804;12.190;2023-03-30T08:15:52;1.30;;;1.00;;
24521;SDS011;12680;57.804;12.190;2023-03-30T08:18:19;0.88;;;0.88;;
24521;SDS011;12680;57.804;12.190;2023-03-30T08:20:49;0.95;;;0.90;;
24521;SDS011;12680;57.804;12.190;2023-03-30T08:23:17;1.27;;;1.00;;
24521;SDS011;12680;57.804;12.190;2023-03-30T08:25:45;1.55;;;1.10;;
24521;SDS011;12680;57.804;12.190;2023-03-30T08:28:16;0.90;;;0.90;;
24521;SDS011;12680;57.804;12.190;2023-03-30T08:30:46;1.23;;;0.77;;
24521;SDS011;12680;57.804;12.190;2023-03-30T08:33:15;1.08;;;0.80;;
24521;SDS011;12680;57.804;12.190;2023-03-30T08:35:45;1.33;;;0.90;;
24521;SDS011;12680;57.804;12.190;2023-03-30T08:38:13;3.30;;;1.00;;
24521;SDS011;12680;57.804;12.190;2023-03-30T08:40:44;1.25;;;1.00;;
24521;SDS011;12680;57.804;12.190;2023-03-30T08:45:50;0.90;;;0.80;;
24521;SDS011;12680;57.804;12.190;2023-03-30T08:48:19;0.82;;;0.82;;
24521;SDS011;12680;57.804;12.190;2023-03-30T08:50:58;1.08;;;0.90;;
24521;SDS011;12680;57.804;12.190;2023-03-30T08:53:31;0.90;;;0.70;;
24521;SDS011;12680;57.804;12.190;2023-03-30T08:56:15;1.90;;;0.80;;
24521;SDS011;12680;57.804;12.190;2023-03-30T09:07:16;0.93;;;0.57;;
24521;SDS011;12680;57.804;12.190;2023-03-30T09:09:46;1.10;;;0.73;;
24521;SDS011;12680;57.804;12.190;2023-03-30T09:15:25;0.98;;;0.88;;
24521;SDS011;12680;57.804;12.190;2023-03-30T09:17:46;1.15;;;0.70;;
24521;SDS011;12680;57.804;12.190;2023-03-30T09:22:53;0.70;;;0.70;;
24521;SDS011;12680;57.804;12.190;2023-03-30T09:28:16;0.60;;;0.60;;
24521;SDS011;12680;57.804;12.190;2023-03-30T09:30:48;0.88;;;0.55;;
24521;SDS011;12680;57.804;12.190;2023-03-30T09:36:13;0.57;;;0.57;;
24521;SDS011;12680;57.804;12.190;2023-03-30T09:38:43;0.80;;;0.80;;
24521;SDS011;12680;57.804;12.190;2023-03-30T09:44:08;0.80;;;0.80;;
24521;SDS011;12680;57.804;12.190;2023-03-30T09:46:43;0.70;;;0.60;;
24521;SDS011;12680;57.804;12.190;2023-03-30T09:49:13;0.60;;;0.60;;
24521;SDS011;12680;57.804;12.190;2023-03-30T09:52:00;1.02;;;0.52;;
24521;SDS011;12680;57.804;12.190;2023-03-30T09:54:33;0.85;;;0.73;;
24521;SDS011;12680;57.804;12.190;2023-03-30T09:57:04;2.47;;;0.70;;
24521;SDS011;12680;57.804;12.190;2023-03-30T09:59:33;0.75;;;0.68;;
24521;SDS011;12680;57.804;12.190;2023-03-30T10:05:00;0.60;;;0.60;;
24521;SDS011;12680;57.804;12.190;2023-03-30T10:07:31;1.00;;;0.73;;
24521;SDS011;12680;57.804;12.190;2023-03-30T10:10:03;0.68;;;0.68;;
24521;SDS011;12680;57.804;12.190;2023-03-30T10:13:00;2.15;;;0.80;;
24521;SDS011;12680;57.804;12.190;2023-03-30T10:15:42;0.70;;;0.70;;
24521;SDS011;12680;57.804;12.190;2023-03-30T10:18:36;0.50;;;0.50;;
24521;SDS011;12680;57.804;12.190;2023-03-30T10:21:08;1.85;;;0.88;;
24521;SDS011;12680;57.804;12.190;2023-03-30T10:23:45;0.60;;;0.60;;
24521;SDS011;12680;57.804;12.190;2023-03-30T10:26:25;0.73;;;0.60;;
24521;SDS011;12680;57.804;12.190;2023-03-30T10:29:06;1.60;;;0.60;;
24521;SDS011;12680;57.804;12.190;2023-03-30T10:34:06;0.80;;;0.70;;
24521;SDS011;12680;57.804;12.190;2023-03-30T10:36:45;0.75;;;0.75;;
24521;SDS011;12680;57.804;12.190;2023-03-30T10:39:20;0.57;;;0.57;;
24521;SDS011;12680;57.804;12.190;2023-03-30T10:41:50;3.40;;;0.80;;
24521;SDS011;12680;57.804;12.190;2023-03-30T10:44:23;0.70;;;0.68;;
24521;SDS011;12680;57.804;12.190;2023-03-30T10:47:00;0.70;;;0.70;;
24521;SDS011;12680;57.804;12.190;2023-03-30T10:49:57;0.65;;;0.57;;
24521;SDS011;12680;57.804;12.190;2023-03-30T10:55:28;0.95;;;0.70;;
24521;SDS011;12680;57.804;12.190;2023-03-30T10:58:06;1.20;;;0.77;;
24521;SDS011;12680;57.804;12.190;2023-03-30T11:00:41;1.83;;;0.90;;
24521;SDS011;12680;57.804;12.190;2023-03-30T11:03:23;0.75;;;0.70;;
24521;SDS011;12680;57.804;12.190;2023-03-30T11:05:55;2.70;;;0.80;;
24521;SDS011;12680;57.804;12.190;2023-03-30T11:08:30;1.17;;;0.70;;
24521;SDS011;12680;57.804;12.190;2023-03-30T11:11:02;0.80;;;0.65;;
24521;SDS011;12680;57.804;12.190;2023-03-30T11:13:41;0.70;;;0.70;;
24521;SDS011;12680;57.804;12.190;2023-03-30T11:18:43;1.35;;;1.02;;
24521;SDS011;12680;57.804;12.190;2023-03-30T11:22:03;1.58;;;0.80;;
24521;SDS011;12680;57.804;12.190;2023-03-30T11:24:19;1.17;;;1.05;;
24521;SDS011;12680;57.804;12.190;2023-03-30T11:34:53;1.35;;;0.80;;
24521;SDS011;12680;57.804;12.190;2023-03-30T11:40:14;0.75;;;0.70;;
24521;SDS011;12680;57.804;12.190;2023-03-30T11:43:00;0.77;;;0.77;;
24521;SDS011;12680;57.804;12.190;2023-03-30T11:51:32;0.70;;;0.68;;
24521;SDS011;12680;57.804;12.190;2023-03-30T11:59:59;1.67;;;0.60;;
24521;SDS011;12680;57.804;12.190;2023-03-30T12:05:22;0.50;;;0.50;;
24521;SDS011;12680;57.804;12.190;2023-03-30T12:10:50;1.67;;;0.70;;
24521;SDS011;12680;57.804;12.190;2023-03-30T12:13:27;0.90;;;0.73;;
24521;SDS011;12680;57.804;12.190;2023-03-30T12:16:14;0.70;;;0.70;;
24521;SDS011;12680;57.804;12.190;2023-03-30T12:21:17;1.20;;;0.70;;
24521;SDS011;12680;57.804;12.190;2023-03-30T12:23:52;0.57;;;0.57;;
24521;SDS011;12680;57.804;12.190;2023-03-30T12:26:35;0.50;;;0.50;;
24521;SDS011;12680;57.804;12.190;2023-03-30T12:29:17;0.90;;;0.57;;
24521;SDS011;12680;57.804;12.190;2023-03-30T12:34:22;1.52;;;0.85;;
24521;SDS011;12680;57.804;12.190;2023-03-30T12:39:42;0.50;;;0.50;;
24521;SDS011;12680;57.804;12.190;2023-03-30T12:42:16;1.35;;;0.75;;
24521;SDS011;12680;57.804;12.190;2023-03-30T12:45:02;1.08;;;0.73;;
24521;SDS011;12680;57.804;12.190;2023-03-30T12:55:43;0.60;;;0.60;;
24521;SDS011;12680;57.804;12.190;2023-03-30T13:04:09;0.70;;;0.70;;
24521;SDS011;12680;57.804;12.190;2023-03-30T13:06:49;0.80;;;0.80;;
24521;SDS011;12680;57.804;12.190;2023-03-30T13:14:43;0.70;;;0.60;;
24521;SDS011;12680;57.804;12.190;2023-03-30T13:17:10;0.65;;;0.65;;
24521;SDS011;12680;57.804;12.190;2023-03-30T13:19:46;1.83;;;1.00;;
24521;SDS011;12680;57.804;12.190;2023-03-30T13:25:50;0.68;;;0.68;;
24521;SDS011;12680;57.804;12.190;2023-03-30T13:28:47;0.60;;;0.60;;
24521;SDS011;12680;57.804;12.190;2023-03-30T13:46:06;1.58;;;0.50;;
24521;SDS011;12680;57.804;12.190;2023-03-30T13:48:49;3.28;;;2.97;;
24521;SDS011;12680;57.804;12.190;2023-03-30T13:51:33;0.98;;;0.60;;
24521;SDS011;12680;57.804;12.190;2023-03-30T13:54:06;0.75;;;0.70;;
24521;SDS011;12680;57.804;12.190;2023-03-30T13:56:40;0.80;;;0.80;;
24521;SDS011;12680;57.804;12.190;2023-03-30T13:59:15;0.80;;;0.75;;
24521;SDS011;12680;57.804;12.190;2023-03-30T14:01:46;0.40;;;0.40;;
24521;SDS011;12680;57.804;12.190;2023-03-30T14:04:15;1.40;;;0.80;;
24521;SDS011;12680;57.804;12.190;2023-03-30T14:06:44;1.55;;;0.68;;
24521;SDS011;12680;57.804;12.190;2023-03-30T14:16:54;0.65;;;0.50;;
24521;SDS011;12680;57.804;12.190;2023-03-30T14:19:24;0.40;;;0.40;;
24521;SDS011;12680;57.804;12.190;2023-03-30T14:21:59;0.85;;;0.77;;
24521;SDS011;12680;57.804;12.190;2023-03-30T14:24:33;0.98;;;0.73;;
24521;SDS011;12680;57.804;12.190;2023-03-30T14:27:02;1.10;;;0.53;;
24521;SDS011;12680;57.804;12.190;2023-03-30T14:29:44;0.93;;;0.80;;
24521;SDS011;12680;57.804;12.190;2023-03-30T14:32:13;1.38;;;0.90;;
24521;SDS011;12680;57.804;12.190;2023-03-30T14:34:46;1.23;;;0.73;;
24521;SDS011;12680;57.804;12.190;2023-03-30T14:37:13;0.70;;;0.65;;
24521;SDS011;12680;57.804;12.190;2023-03-30T14:39:56;0.60;;;0.60;;
24521;SDS011;12680;57.804;12.190;2023-03-30T14:42:23;0.55;;;0.55;;
24521;SDS011;12680;57.804;12.190;2023-03-30T14:44:54;0.43;;;0.43;;
24521;SDS011;12680;57.804;12.190;2023-03-30T14:47:25;0.40;;;0.40;;
24521;SDS011;12680;57.804;12.190;2023-03-30T14:50:00;0.55;;;0.55;;
24521;SDS011;12680;57.804;12.190;2023-03-30T14:52:30;0.40;;;0.40;;
24521;SDS011;12680;57.804;12.190;2023-03-30T14:54:59;0.98;;;0.55;;
24521;SDS011;12680;57.804;12.190;2023-03-30T14:57:34;1.83;;;0.88;;
24521;SDS011;12680;57.804;12.190;2023-03-30T15:00:05;0.50;;;0.50;;
24521;SDS011;12680;57.804;12.190;2023-03-30T15:02:57;0.55;;;0.50;;
24521;SDS011;12680;57.804;12.190;2023-03-30T15:05:31;0.68;;;0.68;;
24521;SDS011;12680;57.804;12.190;2023-03-30T15:08:02;1.50;;;0.60;;
24521;SDS011;12680;57.804;12.190;2023-03-30T15:10:34;0.60;;;0.60;;
24521;SDS011;12680;57.804;12.190;2023-03-30T15:13:09;0.50;;;0.50;;
24521;SDS011;12680;57.804;12.190;2023-03-30T15:15:43;0.70;;;0.50;;
24521;SDS011;12680;57.804;12.190;2023-03-30T15:18:11;0.52;;;0.50;;
24521;SDS011;12680;57.804;12.190;2023-03-30T15:20:44;0.50;;;0.45;;
24521;SDS011;12680;57.804;12.190;2023-03-30T15:23:11;2.35;;;0.93;;
24521;SDS011;12680;57.804;12.190;2023-03-30T15:25:39;2.95;;;1.05;;
24521;SDS011;12680;57.804;12.190;2023-03-30T15:28:06;0.65;;;0.65;;
24521;SDS011;12680;57.804;12.190;2023-03-30T15:30:37;0.60;;;0.60;;
24521;SDS011;12680;57.804;12.190;2023-03-30T15:33:18;0.57;;;0.57;;
24521;SDS011;12680;57.804;12.190;2023-03-30T15:35:51;0.85;;;0.60;;
24521;SDS011;12680;57.804;12.190;2023-03-30T15:38:27;0.57;;;0.57;;
24521;SDS011;12680;57.804;12.190;2023-03-30T15:40:55;0.40;;;0.40;;
24521;SDS011;12680;57.804;12.190;2023-03-30T15:43:26;0.60;;;0.60;;
24521;SDS011;12680;57.804;12.190;2023-03-30T15:45:58;0.68;;;0.60;;
24521;SDS011;12680;57.804;12.190;2023-03-30T15:48:30;0.70;;;0.55;;
24521;SDS011;12680;57.804;12.190;2023-03-30T15:51:04;0.85;;;0.68;;
24521;SDS011;12680;57.804;12.190;2023-03-30T15:53:40;0.57;;;0.57;;
24521;SDS011;12680;57.804;12.190;2023-03-30T15:56:16;1.40;;;0.30;;
24521;SDS011;12680;57.804;12.190;2023-03-30T15:58:57;0.40;;;0.40;;
24521;SDS011;12680;57.804;12.190;2023-03-30T16:01:26;0.70;;;0.50;;
24521;SDS011;12680;57.804;12.190;2023-03-30T16:04:12;1.55;;;0.60;;
24521;SDS011;12680;57.804;12.190;2023-03-30T16:06:41;0.90;;;0.68;;
24521;SDS011;12680;57.804;12.190;2023-03-30T16:09:11;0.77;;;0.60;;
24521;SDS011;12680;57.804;12.190;2023-03-30T16:11:38;0.55;;;0.40;;
24521;SDS011;12680;57.804;12.190;2023-03-30T16:14:06;0.85;;;0.60;;
24521;SDS011;12680;57.804;12.190;2023-03-30T16:16:37;0.70;;;0.55;;
24521;SDS011;12680;57.804;12.190;2023-03-30T16:19:11;0.50;;;0.50;;
24521;SDS011;12680;57.804;12.190;2023-03-30T16:21:39;1.20;;;1.10;;
24521;SDS011;12680;57.804;12.190;2023-03-30T16:24:09;0.60;;;0.60;;
24521;SDS011;12680;57.804;12.190;2023-03-30T16:26:36;0.50;;;0.50;;
24521;SDS011;12680;57.804;12.190;2023-03-30T16:29:03;0.68;;;0.60;;
24521;SDS011;12680;57.804;12.190;2023-03-30T16:31:31;1.02;;;0.60;;
24521;SDS011;12680;57.804;12.190;2023-03-30T16:33:59;1.40;;;1.27;;
24521;SDS011;12680;57.804;12.190;2023-03-30T16:36:26;0.70;;;0.70;;
24521;SDS011;12680;57.804;12.190;2023-03-30T16:38:54;0.25;;;0.25;;
24521;SDS011;12680;57.804;12.190;2023-03-30T16:41:21;3.67;;;1.55;;
24521;SDS011;12680;57.804;12.190;2023-03-30T16:43:48;0.60;;;0.60;;
24521;SDS011;12680;57.804;12.190;2023-03-30T16:46:16;1.10;;;0.90;;
24521;SDS011;12680;57.804;12.190;2023-03-30T16:48:45;0.60;;;0.60;;
24521;SDS011;12680;57.804;12.190;2023-03-30T16:51:12;0.65;;;0.65;;
24521;SDS011;12680;57.804;12.190;2023-03-30T16:53:40;0.55;;;0.55;;
24521;SDS011;12680;57.804;12.190;2023-03-30T16:56:15;0.32;;;0.32;;
24521;SDS011;12680;57.804;12.190;2023-03-30T16:58:43;0.47;;;0.40;;
24521;SDS011;12680;57.804;12.190;2023-03-30T17:01:11;0.90;;;0.60;;
24521;SDS011;12680;57.804;12.190;2023-03-30T17:03:41;0.60;;;0.60;;
24521;SDS011;12680;57.804;12.190;2023-03-30T17:06:07;0.75;;;0.60;;
24521;SDS011;12680;57.804;12.190;2023-03-30T17:08:34;0.80;;;0.63;;
24521;SDS011;12680;57.804;12.190;2023-03-30T17:11:01;0.50;;;0.50;;
24521;SDS011;12680;57.804;12.190;2023-03-30T17:13:30;0.50;;;0.50;;
24521;SDS011;12680;57.804;12.190;2023-03-30T17:15:57;0.73;;;0.45;;
24521;SDS011;12680;57.804;12.190;2023-03-30T17:18:26;0.80;;;0.50;;
24521;SDS011;12680;57.804;12.190;2023-03-30T17:20:54;0.43;;;0.40;;
24521;SDS011;12680;57.804;12.190;2023-03-30T17:23:26;0.75;;;0.50;;
24521;SDS011;12680;57.804;12.190;2023-03-30T17:25:55;2.55;;;0.35;;
24521;SDS011;12680;57.804;12.190;2023-03-30T17:28:24;1.05;;;0.70;;
24521;SDS011;12680;57.804;12.190;2023-03-30T17:30:57;1.63;;;0.60;;
24521;SDS011;12680;57.804;12.190;2023-03-30T17:33:29;0.93;;;0.60;;